sensor_id;sensor_type;location;lat;lon;timestamp;P1;durP1;ratioP1;P2;durP2;ratioP2
49722;SDS011;43484;43.608;1.458;2023-07-28T00:01:55;1.88;;;1.30;;
49722;SDS011;43484;43.608;1.458;2023-07-28T00:04:22;1.38;;;0.98;;
49722;SDS011;43484;43.608;1.458;2023-07-28T00:06:49;2.25;;;1.20;;
49722;SDS011;43484;43.608;1.458;2023-07-28T00:09:16;2.42;;;1.35;;
49722;SDS011;43484;43.608;1.458;2023-07-28T00:11:42;1.58;;;1.27;;
49722;SDS011;43484;43.608;1.458;2023-07-28T00:14:09;2.47;;;1.35;;
49722;SDS011;43484;43.608;1.458;2023-07-28T00:16:35;3.38;;;1.20;;
49722;SDS011;43484;43.608;1.458;2023-07-28T00:19:03;2.03;;;1.55;;
49722;SDS011;43484;43.608;1.458;2023-07-28T00:21:30;4.20;;;1.23;;
49722;SDS011;43484;43.608;1.458;2023-07-28T00:23:56;2.72;;;1.20;;
49722;SDS011;43484;43.608;1.458;2023-07-28T00:26:23;3.92;;;1.40;;
49722;SDS011;43484;43.608;1.458;2023-07-28T00:28:49;3.20;;;1.38;;
49722;SDS011;43484;43.608;1.458;2023-07-28T00:31:16;4.47;;;1.38;;
49722;SDS011;43484;43.608;1.458;2023-07-28T00:33:43;3.40;;;1.20;;
49722;SDS011;43484;43.608;1.458;2023-07-28T00:36:09;1.92;;;1.30;;
49722;SDS011;43484;43.608;1.458;2023-07-28T00:38:36;2.58;;;1.50;;
49722;SDS011;43484;43.608;1.458;2023-07-28T00:41:03;1.52;;;1.27;;
49722;SDS011;43484;43.608;1.458;2023-07-28T00:43:30;4.15;;;1.30;;
49722;SDS011;43484;43.608;1.458;2023-07-28T00:45:56;3.78;;;1.40;;
49722;SDS011;43484;43.608;1.458;2023-07-28T00:48:23;1.35;;;1.00;;
49722;SDS011;43484;43.608;1.458;2023-07-28T00:50:52;3.88;;;1.55;;
49722;SDS011;43484;43.608;1.458;2023-07-28T00:53:21;7.20;;;1.98;;
49722;SDS011;43484;43.608;1.458;2023-07-28T00:55:49;8.15;;;1.33;;
49722;SDS011;43484;43.608;1.458;2023-07-28T00:58:17;2.30;;;1.23;;
49722;SDS011;43484;43.608;1.458;2023-07-28T01:00:44;3.13;;;1.27;;
49722;SDS011;43484;43.608;1.458;2023-07-28T01:03:11;4.72;;;1.17;;
49722;SDS011;43484;43.608;1.458;2023-07-28T01:08:11;2.40;;;1.05;;
49722;SDS011;43484;43.608;1.458;2023-07-28T01:10:42;2.90;;;1.55;;
49722;SDS011;43484;43.608;1.458;2023-07-28T01:13:09;2.63;;;1.13;;
49722;SDS011;43484;43.608;1.458;2023-07-28T01:15:36;1.63;;;1.00;;
49722;SDS011;43484;43.608;1.458;2023-07-28T01:18:03;2.47;;;1.30;;
49722;SDS011;43484;43.608;1.458;2023-07-28T01:20:30;3.00;;;1.10;;
49722;SDS011;43484;43.608;1.458;2023-07-28T01:23:05;4.30;;;1.00;;
49722;SDS011;43484;43.608;1.458;2023-07-28T01:25:43;2.53;;;1.50;;
49722;SDS011;43484;43.608;1.458;2023-07-28T01:28:21;1.27;;;1.00;;
49722;SDS011;43484;43.608;1.458;2023-07-28T01:30:49;1.67;;;1.08;;
49722;SDS011;43484;43.608;1.458;2023-07-28T01:33:15;2.20;;;0.90;;
49722;SDS011;43484;43.608;1.458;2023-07-28T01:35:42;2.47;;;1.10;;
49722;SDS011;43484;43.608;1.458;2023-07-28T01:38:08;2.40;;;0.95;;
49722;SDS011;43484;43.608;1.458;2023-07-28T01:40:35;1.98;;;1.10;;
49722;SDS011;43484;43.608;1.458;2023-07-28T01:43:01;2.45;;;0.98;;
49722;SDS011;43484;43.608;1.458;2023-07-28T01:45:28;3.90;;;1.25;;
49722;SDS011;43484;43.608;1.458;2023-07-28T01:47:55;2.28;;;1.10;;
49722;SDS011;43484;43.608;1.458;2023-07-28T01:50:22;1.25;;;1.00;;
49722;SDS011;43484;43.608;1.458;2023-07-28T01:52:49;5.00;;;1.20;;
49722;SDS011;43484;43.608;1.458;2023-07-28T01:55:16;4.28;;;1.35;;
49722;SDS011;43484;43.608;1.458;2023-07-28T01:57:50;3.85;;;1.55;;
49722;SDS011;43484;43.608;1.458;2023-07-28T02:00:21;2.08;;;1.20;;
49722;SDS011;43484;43.608;1.458;2023-07-28T02:02:48;3.45;;;1.33;;
49722;SDS011;43484;43.608;1.458;2023-07-28T02:05:15;5.88;;;0.95;;
49722;SDS011;43484;43.608;1.458;2023-07-28T02:07:42;2.83;;;1.05;;
49722;SDS011;43484;43.608;1.458;2023-07-28T02:10:09;4.70;;;1.20;;
49722;SDS011;43484;43.608;1.458;2023-07-28T02:12:37;3.05;;;1.20;;
49722;SDS011;43484;43.608;1.458;2023-07-28T02:15:05;3.35;;;1.10;;
49722;SDS011;43484;43.608;1.458;2023-07-28T02:17:32;4.35;;;1.55;;
49722;SDS011;43484;43.608;1.458;2023-07-28T02:19:58;1.50;;;0.98;;
49722;SDS011;43484;43.608;1.458;2023-07-28T02:22:26;4.75;;;1.13;;
49722;SDS011;43484;43.608;1.458;2023-07-28T02:24:52;3.05;;;1.00;;
49722;SDS011;43484;43.608;1.458;2023-07-28T02:27:19;3.22;;;1.00;;
49722;SDS011;43484;43.608;1.458;2023-07-28T02:29:46;1.95;;;1.00;;
49722;SDS011;43484;43.608;1.458;2023-07-28T02:32:12;2.45;;;1.02;;
49722;SDS011;43484;43.608;1.458;2023-07-28T02:34:38;4.38;;;1.15;;
49722;SDS011;43484;43.608;1.458;2023-07-28T02:37:05;3.08;;;1.33;;
49722;SDS011;43484;43.608;1.458;2023-07-28T02:39:32;3.22;;;1.25;;
49722;SDS011;43484;43.608;1.458;2023-07-28T02:41:58;3.45;;;1.30;;
49722;SDS011;43484;43.608;1.458;2023-07-28T02:44:25;5.82;;;1.13;;
49722;SDS011;43484;43.608;1.458;2023-07-28T02:46:52;4.25;;;1.55;;
49722;SDS011;43484;43.608;1.458;2023-07-28T02:49:19;4.10;;;1.20;;
49722;SDS011;43484;43.608;1.458;2023-07-28T02:51:45;2.92;;;1.10;;
49722;SDS011;43484;43.608;1.458;2023-07-28T02:54:12;4.95;;;1.13;;
49722;SDS011;43484;43.608;1.458;2023-07-28T02:56:38;2.90;;;1.08;;
49722;SDS011;43484;43.608;1.458;2023-07-28T02:59:05;1.50;;;1.00;;
49722;SDS011;43484;43.608;1.458;2023-07-28T03:01:32;2.00;;;1.10;;
49722;SDS011;43484;43.608;1.458;2023-07-28T03:04:00;1.55;;;1.25;;
49722;SDS011;43484;43.608;1.458;2023-07-28T03:06:27;5.20;;;1.20;;
49722;SDS011;43484;43.608;1.458;2023-07-28T03:08:54;2.13;;;1.00;;
49722;SDS011;43484;43.608;1.458;2023-07-28T03:11:20;7.07;;;1.10;;
49722;SDS011;43484;43.608;1.458;2023-07-28T03:13:47;6.95;;;1.30;;
49722;SDS011;43484;43.608;1.458;2023-07-28T03:16:14;2.00;;;1.23;;
49722;SDS011;43484;43.608;1.458;2023-07-28T03:18:40;1.85;;;1.10;;
49722;SDS011;43484;43.608;1.458;2023-07-28T03:21:08;2.28;;;1.13;;
49722;SDS011;43484;43.608;1.458;2023-07-28T03:23:35;3.30;;;1.38;;
49722;SDS011;43484;43.608;1.458;2023-07-28T03:26:02;2.08;;;1.20;;
49722;SDS011;43484;43.608;1.458;2023-07-28T03:28:28;3.05;;;1.13;;
49722;SDS011;43484;43.608;1.458;2023-07-28T03:30:55;6.10;;;1.10;;
49722;SDS011;43484;43.608;1.458;2023-07-28T03:33:21;3.40;;;1.58;;
49722;SDS011;43484;43.608;1.458;2023-07-28T03:35:48;6.45;;;1.40;;
49722;SDS011;43484;43.608;1.458;2023-07-28T03:38:14;3.05;;;1.35;;
49722;SDS011;43484;43.608;1.458;2023-07-28T03:40:41;5.68;;;1.98;;
49722;SDS011;43484;43.608;1.458;2023-07-28T03:43:10;4.50;;;1.25;;
49722;SDS011;43484;43.608;1.458;2023-07-28T03:45:36;2.67;;;1.10;;
49722;SDS011;43484;43.608;1.458;2023-07-28T03:48:03;3.03;;;1.55;;
49722;SDS011;43484;43.608;1.458;2023-07-28T03:50:30;4.43;;;1.63;;
49722;SDS011;43484;43.608;1.458;2023-07-28T03:52:57;3.03;;;1.52;;
49722;SDS011;43484;43.608;1.458;2023-07-28T03:55:23;9.00;;;1.73;;
49722;SDS011;43484;43.608;1.458;2023-07-28T03:57:50;4.13;;;1.80;;
49722;SDS011;43484;43.608;1.458;2023-07-28T04:00:16;3.88;;;2.17;;
49722;SDS011;43484;43.608;1.458;2023-07-28T04:02:43;6.15;;;1.50;;
49722;SDS011;43484;43.608;1.458;2023-07-28T04:05:09;4.57;;;1.65;;
49722;SDS011;43484;43.608;1.458;2023-07-28T04:07:36;5.80;;;1.70;;
49722;SDS011;43484;43.608;1.458;2023-07-28T04:10:04;7.28;;;2.03;;
49722;SDS011;43484;43.608;1.458;2023-07-28T04:12:31;3.88;;;1.58;;
49722;SDS011;43484;43.608;1.458;2023-07-28T04:14:57;5.22;;;1.73;;
49722;SDS011;43484;43.608;1.458;2023-07-28T04:17:24;4.53;;;1.85;;
49722;SDS011;43484;43.608;1.458;2023-07-28T04:19:51;2.50;;;1.73;;
49722;SDS011;43484;43.608;1.458;2023-07-28T04:22:18;4.82;;;1.60;;
49722;SDS011;43484;43.608;1.458;2023-07-28T04:24:47;4.90;;;1.67;;
49722;SDS011;43484;43.608;1.458;2023-07-28T04:27:14;4.18;;;1.85;;
49722;SDS011;43484;43.608;1.458;2023-07-28T04:29:41;5.15;;;1.77;;
49722;SDS011;43484;43.608;1.458;2023-07-28T04:32:07;4.57;;;1.27;;
49722;SDS011;43484;43.608;1.458;2023-07-28T04:34:35;4.60;;;1.70;;
49722;SDS011;43484;43.608;1.458;2023-07-28T04:37:01;6.00;;;2.00;;
49722;SDS011;43484;43.608;1.458;2023-07-28T04:39:28;2.35;;;1.77;;
49722;SDS011;43484;43.608;1.458;2023-07-28T04:41:54;5.28;;;2.22;;
49722;SDS011;43484;43.608;1.458;2023-07-28T04:44:21;2.33;;;1.67;;
49722;SDS011;43484;43.608;1.458;2023-07-28T04:46:47;6.55;;;2.40;;
49722;SDS011;43484;43.608;1.458;2023-07-28T04:49:14;2.55;;;1.80;;
49722;SDS011;43484;43.608;1.458;2023-07-28T04:51:41;3.45;;;1.80;;
49722;SDS011;43484;43.608;1.458;2023-07-28T04:54:07;7.15;;;1.65;;
49722;SDS011;43484;43.608;1.458;2023-07-28T04:56:34;3.83;;;2.13;;
49722;SDS011;43484;43.608;1.458;2023-07-28T04:59:01;4.43;;;1.90;;
49722;SDS011;43484;43.608;1.458;2023-07-28T05:01:28;2.58;;;1.80;;
49722;SDS011;43484;43.608;1.458;2023-07-28T05:03:55;4.55;;;2.00;;
49722;SDS011;43484;43.608;1.458;2023-07-28T05:06:22;2.72;;;1.60;;
49722;SDS011;43484;43.608;1.458;2023-07-28T05:08:48;2.97;;;2.42;;
49722;SDS011;43484;43.608;1.458;2023-07-28T05:11:15;7.65;;;1.90;;
49722;SDS011;43484;43.608;1.458;2023-07-28T05:13:41;5.57;;;2.17;;
49722;SDS011;43484;43.608;1.458;2023-07-28T05:16:08;4.38;;;2.17;;
49722;SDS011;43484;43.608;1.458;2023-07-28T05:18:35;4.30;;;2.08;;
49722;SDS011;43484;43.608;1.458;2023-07-28T05:21:01;2.38;;;1.70;;
49722;SDS011;43484;43.608;1.458;2023-07-28T05:23:28;6.78;;;1.60;;
49722;SDS011;43484;43.608;1.458;2023-07-28T05:25:54;10.10;;;2.05;;
49722;SDS011;43484;43.608;1.458;2023-07-28T05:28:21;8.35;;;2.22;;
49722;SDS011;43484;43.608;1.458;2023-07-28T05:30:48;11.18;;;2.30;;
49722;SDS011;43484;43.608;1.458;2023-07-28T05:33:14;5.82;;;2.08;;
49722;SDS011;43484;43.608;1.458;2023-07-28T05:35:41;4.60;;;2.10;;
49722;SDS011;43484;43.608;1.458;2023-07-28T05:38:08;3.70;;;2.50;;
49722;SDS011;43484;43.608;1.458;2023-07-28T05:40:35;7.65;;;2.58;;
49722;SDS011;43484;43.608;1.458;2023-07-28T05:43:01;3.72;;;2.03;;
49722;SDS011;43484;43.608;1.458;2023-07-28T05:45:29;8.45;;;2.70;;
49722;SDS011;43484;43.608;1.458;2023-07-28T05:47:55;11.02;;;3.03;;
49722;SDS011;43484;43.608;1.458;2023-07-28T05:50:22;12.75;;;3.40;;
49722;SDS011;43484;43.608;1.458;2023-07-28T05:52:48;19.60;;;3.60;;
49722;SDS011;43484;43.608;1.458;2023-07-28T05:55:15;10.23;;;5.00;;
49722;SDS011;43484;43.608;1.458;2023-07-28T05:57:41;10.55;;;5.90;;
49722;SDS011;43484;43.608;1.458;2023-07-28T06:00:09;16.80;;;8.77;;
49722;SDS011;43484;43.608;1.458;2023-07-28T06:02:37;13.43;;;9.77;;
49722;SDS011;43484;43.608;1.458;2023-07-28T06:05:04;18.92;;;10.02;;
49722;SDS011;43484;43.608;1.458;2023-07-28T06:07:30;17.58;;;7.60;;
49722;SDS011;43484;43.608;1.458;2023-07-28T06:09:57;23.25;;;9.00;;
49722;SDS011;43484;43.608;1.458;2023-07-28T06:12:23;16.10;;;7.18;;
49722;SDS011;43484;43.608;1.458;2023-07-28T06:14:50;15.55;;;5.43;;
49722;SDS011;43484;43.608;1.458;2023-07-28T06:17:17;7.60;;;4.07;;
49722;SDS011;43484;43.608;1.458;2023-07-28T06:19:44;13.35;;;4.13;;
49722;SDS011;43484;43.608;1.458;2023-07-28T06:22:11;12.32;;;4.40;;
49722;SDS011;43484;43.608;1.458;2023-07-28T06:24:38;7.25;;;3.92;;
49722;SDS011;43484;43.608;1.458;2023-07-28T06:27:05;7.60;;;3.47;;
49722;SDS011;43484;43.608;1.458;2023-07-28T06:29:34;7.88;;;3.03;;
49722;SDS011;43484;43.608;1.458;2023-07-28T06:32:01;10.05;;;2.95;;
49722;SDS011;43484;43.608;1.458;2023-07-28T06:34:28;4.30;;;2.35;;
49722;SDS011;43484;43.608;1.458;2023-07-28T06:36:54;7.88;;;1.95;;
49722;SDS011;43484;43.608;1.458;2023-07-28T06:39:21;1.98;;;1.63;;
49722;SDS011;43484;43.608;1.458;2023-07-28T06:41:47;5.70;;;1.88;;
49722;SDS011;43484;43.608;1.458;2023-07-28T06:44:14;5.63;;;2.15;;
49722;SDS011;43484;43.608;1.458;2023-07-28T06:46:41;10.50;;;2.70;;
49722;SDS011;43484;43.608;1.458;2023-07-28T06:49:11;11.40;;;2.40;;
49722;SDS011;43484;43.608;1.458;2023-07-28T06:51:37;4.93;;;2.40;;
49722;SDS011;43484;43.608;1.458;2023-07-28T06:54:04;6.45;;;1.88;;
49722;SDS011;43484;43.608;1.458;2023-07-28T06:56:30;11.15;;;2.80;;
49722;SDS011;43484;43.608;1.458;2023-07-28T06:58:58;7.55;;;2.13;;
49722;SDS011;43484;43.608;1.458;2023-07-28T07:01:41;5.78;;;1.95;;
49722;SDS011;43484;43.608;1.458;2023-07-28T07:04:08;12.30;;;2.08;;
49722;SDS011;43484;43.608;1.458;2023-07-28T07:06:34;5.25;;;2.05;;
49722;SDS011;43484;43.608;1.458;2023-07-28T07:09:01;29.75;;;2.95;;
49722;SDS011;43484;43.608;1.458;2023-07-28T07:11:29;14.98;;;2.63;;
49722;SDS011;43484;43.608;1.458;2023-07-28T07:13:55;4.95;;;1.98;;
49722;SDS011;43484;43.608;1.458;2023-07-28T07:16:22;7.10;;;2.20;;
49722;SDS011;43484;43.608;1.458;2023-07-28T07:18:53;6.55;;;2.05;;
49722;SDS011;43484;43.608;1.458;2023-07-28T07:21:19;6.85;;;2.13;;
49722;SDS011;43484;43.608;1.458;2023-07-28T07:23:46;5.50;;;2.17;;
49722;SDS011;43484;43.608;1.458;2023-07-28T07:26:14;6.13;;;2.15;;
49722;SDS011;43484;43.608;1.458;2023-07-28T07:28:40;3.30;;;1.90;;
49722;SDS011;43484;43.608;1.458;2023-07-28T07:31:14;4.05;;;1.73;;
49722;SDS011;43484;43.608;1.458;2023-07-28T07:33:41;5.88;;;1.80;;
49722;SDS011;43484;43.608;1.458;2023-07-28T07:36:15;8.90;;;2.35;;
49722;SDS011;43484;43.608;1.458;2023-07-28T07:38:42;5.32;;;1.90;;
49722;SDS011;43484;43.608;1.458;2023-07-28T07:41:12;8.40;;;2.30;;
49722;SDS011;43484;43.608;1.458;2023-07-28T07:43:42;4.25;;;1.67;;
49722;SDS011;43484;43.608;1.458;2023-07-28T07:46:08;8.23;;;1.83;;
49722;SDS011;43484;43.608;1.458;2023-07-28T07:48:35;4.60;;;1.70;;
49722;SDS011;43484;43.608;1.458;2023-07-28T07:51:01;5.75;;;1.65;;
49722;SDS011;43484;43.608;1.458;2023-07-28T07:53:28;6.22;;;1.38;;
49722;SDS011;43484;43.608;1.458;2023-07-28T07:55:55;9.02;;;1.88;;
49722;SDS011;43484;43.608;1.458;2023-07-28T07:58:21;3.35;;;1.85;;
49722;SDS011;43484;43.608;1.458;2023-07-28T08:00:48;34.58;;;3.70;;
49722;SDS011;43484;43.608;1.458;2023-07-28T08:03:16;48.08;;;3.60;;
49722;SDS011;43484;43.608;1.458;2023-07-28T08:05:42;24.80;;;2.20;;
49722;SDS011;43484;43.608;1.458;2023-07-28T08:08:09;25.48;;;2.88;;
49722;SDS011;43484;43.608;1.458;2023-07-28T08:10:36;43.33;;;3.33;;
49722;SDS011;43484;43.608;1.458;2023-07-28T08:13:03;8.45;;;2.03;;
49722;SDS011;43484;43.608;1.458;2023-07-28T08:15:30;8.60;;;1.80;;
49722;SDS011;43484;43.608;1.458;2023-07-28T08:17:57;3.90;;;1.70;;
49722;SDS011;43484;43.608;1.458;2023-07-28T08:20:23;6.13;;;1.70;;
49722;SDS011;43484;43.608;1.458;2023-07-28T08:22:50;5.47;;;1.50;;
49722;SDS011;43484;43.608;1.458;2023-07-28T08:25:17;3.22;;;1.75;;
49722;SDS011;43484;43.608;1.458;2023-07-28T08:27:44;6.63;;;1.65;;
49722;SDS011;43484;43.608;1.458;2023-07-28T08:30:11;6.18;;;1.85;;
49722;SDS011;43484;43.608;1.458;2023-07-28T08:32:37;2.88;;;1.80;;
49722;SDS011;43484;43.608;1.458;2023-07-28T08:35:04;2.15;;;1.30;;
49722;SDS011;43484;43.608;1.458;2023-07-28T08:37:31;25.52;;;2.88;;
49722;SDS011;43484;43.608;1.458;2023-07-28T08:39:58;11.25;;;1.73;;
49722;SDS011;43484;43.608;1.458;2023-07-28T08:42:24;3.40;;;1.40;;
49722;SDS011;43484;43.608;1.458;2023-07-28T08:44:51;14.98;;;2.28;;
49722;SDS011;43484;43.608;1.458;2023-07-28T08:47:20;7.10;;;1.80;;
49722;SDS011;43484;43.608;1.458;2023-07-28T08:49:48;6.45;;;1.80;;
49722;SDS011;43484;43.608;1.458;2023-07-28T08:52:16;5.68;;;1.50;;
49722;SDS011;43484;43.608;1.458;2023-07-28T08:54:44;7.93;;;1.67;;
49722;SDS011;43484;43.608;1.458;2023-07-28T08:57:10;5.03;;;1.52;;
49722;SDS011;43484;43.608;1.458;2023-07-28T08:59:37;9.55;;;1.45;;
49722;SDS011;43484;43.608;1.458;2023-07-28T09:02:08;7.60;;;1.80;;
49722;SDS011;43484;43.608;1.458;2023-07-28T09:04:36;7.82;;;1.48;;
49722;SDS011;43484;43.608;1.458;2023-07-28T09:07:04;4.47;;;1.27;;
49722;SDS011;43484;43.608;1.458;2023-07-28T09:09:31;3.63;;;1.45;;
49722;SDS011;43484;43.608;1.458;2023-07-28T09:11:59;6.25;;;1.80;;
49722;SDS011;43484;43.608;1.458;2023-07-28T09:14:26;6.25;;;1.88;;
49722;SDS011;43484;43.608;1.458;2023-07-28T09:16:53;7.78;;;1.85;;
49722;SDS011;43484;43.608;1.458;2023-07-28T09:19:20;5.07;;;1.75;;
49722;SDS011;43484;43.608;1.458;2023-07-28T09:21:58;6.07;;;2.03;;
49722;SDS011;43484;43.608;1.458;2023-07-28T09:24:32;11.65;;;1.80;;
49722;SDS011;43484;43.608;1.458;2023-07-28T09:29:27;6.18;;;1.50;;
49722;SDS011;43484;43.608;1.458;2023-07-28T09:32:05;9.75;;;2.10;;
49722;SDS011;43484;43.608;1.458;2023-07-28T09:34:33;2.92;;;1.50;;
49722;SDS011;43484;43.608;1.458;2023-07-28T09:37:00;4.07;;;1.52;;
49722;SDS011;43484;43.608;1.458;2023-07-28T09:39:27;4.40;;;1.55;;
49722;SDS011;43484;43.608;1.458;2023-07-28T09:41:54;7.20;;;2.03;;
49722;SDS011;43484;43.608;1.458;2023-07-28T09:44:24;3.72;;;1.95;;
49722;SDS011;43484;43.608;1.458;2023-07-28T09:46:52;6.00;;;1.67;;
49722;SDS011;43484;43.608;1.458;2023-07-28T09:51:56;6.38;;;1.52;;
49722;SDS011;43484;43.608;1.458;2023-07-28T09:54:27;8.38;;;2.05;;
49722;SDS011;43484;43.608;1.458;2023-07-28T09:56:56;4.30;;;1.90;;
49722;SDS011;43484;43.608;1.458;2023-07-28T09:59:32;6.45;;;1.58;;
49722;SDS011;43484;43.608;1.458;2023-07-28T10:02:01;2.85;;;1.70;;
49722;SDS011;43484;43.608;1.458;2023-07-28T10:04:29;3.72;;;1.58;;
49722;SDS011;43484;43.608;1.458;2023-07-28T10:06:56;2.53;;;1.65;;
49722;SDS011;43484;43.608;1.458;2023-07-28T10:09:24;5.00;;;1.90;;
49722;SDS011;43484;43.608;1.458;2023-07-28T10:11:52;4.70;;;1.73;;
49722;SDS011;43484;43.608;1.458;2023-07-28T10:14:26;4.22;;;1.83;;
49722;SDS011;43484;43.608;1.458;2023-07-28T10:16:58;4.93;;;1.67;;
49722;SDS011;43484;43.608;1.458;2023-07-28T10:19:25;2.40;;;1.95;;
49722;SDS011;43484;43.608;1.458;2023-07-28T10:21:59;6.60;;;1.52;;
49722;SDS011;43484;43.608;1.458;2023-07-28T10:27:35;6.93;;;1.95;;
49722;SDS011;43484;43.608;1.458;2023-07-28T10:30:09;8.60;;;1.90;;
49722;SDS011;43484;43.608;1.458;2023-07-28T10:35:21;5.57;;;1.70;;
49722;SDS011;43484;43.608;1.458;2023-07-28T10:37:50;8.68;;;1.92;;
49722;SDS011;43484;43.608;1.458;2023-07-28T10:40:33;3.45;;;1.67;;
49722;SDS011;43484;43.608;1.458;2023-07-28T10:43:02;3.60;;;1.60;;
49722;SDS011;43484;43.608;1.458;2023-07-28T10:45:30;7.78;;;2.17;;
49722;SDS011;43484;43.608;1.458;2023-07-28T10:47:58;4.90;;;1.80;;
49722;SDS011;43484;43.608;1.458;2023-07-28T10:50:30;4.90;;;1.80;;
49722;SDS011;43484;43.608;1.458;2023-07-28T10:52:57;3.80;;;1.90;;
49722;SDS011;43484;43.608;1.458;2023-07-28T10:55:25;8.00;;;2.13;;
49722;SDS011;43484;43.608;1.458;2023-07-28T10:57:53;5.35;;;2.25;;
49722;SDS011;43484;43.608;1.458;2023-07-28T11:00:21;3.25;;;1.50;;
49722;SDS011;43484;43.608;1.458;2023-07-28T11:02:50;5.35;;;1.83;;
49722;SDS011;43484;43.608;1.458;2023-07-28T11:05:23;4.25;;;1.50;;
49722;SDS011;43484;43.608;1.458;2023-07-28T11:07:55;3.70;;;1.63;;
49722;SDS011;43484;43.608;1.458;2023-07-28T11:10:25;5.70;;;1.58;;
49722;SDS011;43484;43.608;1.458;2023-07-28T11:12:56;4.25;;;1.60;;
49722;SDS011;43484;43.608;1.458;2023-07-28T11:15:28;5.80;;;2.22;;
49722;SDS011;43484;43.608;1.458;2023-07-28T11:17:55;3.50;;;1.88;;
49722;SDS011;43484;43.608;1.458;2023-07-28T11:20:23;5.13;;;1.60;;
49722;SDS011;43484;43.608;1.458;2023-07-28T11:23:01;7.15;;;1.85;;
49722;SDS011;43484;43.608;1.458;2023-07-28T11:25:30;4.78;;;1.73;;
49722;SDS011;43484;43.608;1.458;2023-07-28T11:28:00;3.38;;;1.88;;
49722;SDS011;43484;43.608;1.458;2023-07-28T11:30:29;17.25;;;2.10;;
49722;SDS011;43484;43.608;1.458;2023-07-28T11:32:57;5.57;;;1.90;;
49722;SDS011;43484;43.608;1.458;2023-07-28T11:35:24;7.50;;;1.60;;
49722;SDS011;43484;43.608;1.458;2023-07-28T11:37:51;3.47;;;1.92;;
49722;SDS011;43484;43.608;1.458;2023-07-28T11:40:20;3.50;;;1.63;;
49722;SDS011;43484;43.608;1.458;2023-07-28T11:42:48;17.50;;;2.35;;
49722;SDS011;43484;43.608;1.458;2023-07-28T11:45:17;66.90;;;4.35;;
49722;SDS011;43484;43.608;1.458;2023-07-28T11:47:52;10.82;;;2.30;;
49722;SDS011;43484;43.608;1.458;2023-07-28T11:50:27;4.60;;;1.70;;
49722;SDS011;43484;43.608;1.458;2023-07-28T11:52:58;2.38;;;1.65;;
49722;SDS011;43484;43.608;1.458;2023-07-28T11:55:25;3.33;;;1.52;;
49722;SDS011;43484;43.608;1.458;2023-07-28T11:57:52;5.25;;;1.80;;
49722;SDS011;43484;43.608;1.458;2023-07-28T12:00:24;4.68;;;1.70;;
49722;SDS011;43484;43.608;1.458;2023-07-28T12:03:02;2.30;;;1.70;;
49722;SDS011;43484;43.608;1.458;2023-07-28T12:05:31;5.05;;;2.05;;
49722;SDS011;43484;43.608;1.458;2023-07-28T12:08:00;9.60;;;2.85;;
49722;SDS011;43484;43.608;1.458;2023-07-28T12:10:27;9.02;;;1.77;;
49722;SDS011;43484;43.608;1.458;2023-07-28T12:12:57;2.10;;;1.60;;
49722;SDS011;43484;43.608;1.458;2023-07-28T12:15:34;3.92;;;1.95;;
49722;SDS011;43484;43.608;1.458;2023-07-28T12:18:12;5.85;;;1.60;;
49722;SDS011;43484;43.608;1.458;2023-07-28T12:20:54;3.42;;;1.65;;
49722;SDS011;43484;43.608;1.458;2023-07-28T12:23:21;26.05;;;4.03;;
49722;SDS011;43484;43.608;1.458;2023-07-28T12:25:52;9.35;;;1.85;;
49722;SDS011;43484;43.608;1.458;2023-07-28T12:28:22;8.00;;;2.45;;
49722;SDS011;43484;43.608;1.458;2023-07-28T12:30:49;3.78;;;1.58;;
49722;SDS011;43484;43.608;1.458;2023-07-28T12:33:17;3.15;;;1.73;;
49722;SDS011;43484;43.608;1.458;2023-07-28T12:35:47;7.88;;;2.35;;
49722;SDS011;43484;43.608;1.458;2023-07-28T12:38:16;2.70;;;1.70;;
49722;SDS011;43484;43.608;1.458;2023-07-28T12:40:46;5.53;;;1.67;;
49722;SDS011;43484;43.608;1.458;2023-07-28T12:43:15;6.00;;;2.30;;
49722;SDS011;43484;43.608;1.458;2023-07-28T12:45:45;9.40;;;1.80;;
49722;SDS011;43484;43.608;1.458;2023-07-28T12:48:15;6.57;;;2.10;;
49722;SDS011;43484;43.608;1.458;2023-07-28T12:50:44;7.53;;;1.73;;
49722;SDS011;43484;43.608;1.458;2023-07-28T12:53:12;3.58;;;1.63;;
49722;SDS011;43484;43.608;1.458;2023-07-28T12:55:45;7.15;;;2.15;;
49722;SDS011;43484;43.608;1.458;2023-07-28T12:58:14;6.45;;;1.70;;
49722;SDS011;43484;43.608;1.458;2023-07-28T13:00:44;5.10;;;1.92;;
49722;SDS011;43484;43.608;1.458;2023-07-28T13:03:13;6.13;;;1.70;;
49722;SDS011;43484;43.608;1.458;2023-07-28T13:05:40;2.20;;;1.80;;
49722;SDS011;43484;43.608;1.458;2023-07-28T13:08:10;5.45;;;1.98;;
49722;SDS011;43484;43.608;1.458;2023-07-28T13:10:37;2.63;;;1.70;;
49722;SDS011;43484;43.608;1.458;2023-07-28T13:13:07;2.10;;;1.70;;
49722;SDS011;43484;43.608;1.458;2023-07-28T13:15:37;8.18;;;2.13;;
49722;SDS011;43484;43.608;1.458;2023-07-28T13:18:04;3.80;;;1.70;;
49722;SDS011;43484;43.608;1.458;2023-07-28T13:20:31;4.13;;;2.10;;
49722;SDS011;43484;43.608;1.458;2023-07-28T13:22:57;4.35;;;1.83;;
49722;SDS011;43484;43.608;1.458;2023-07-28T13:25:24;5.30;;;1.90;;
49722;SDS011;43484;43.608;1.458;2023-07-28T13:27:51;7.50;;;1.77;;
49722;SDS011;43484;43.608;1.458;2023-07-28T13:30:18;3.70;;;1.75;;
49722;SDS011;43484;43.608;1.458;2023-07-28T13:32:45;6.10;;;1.90;;
49722;SDS011;43484;43.608;1.458;2023-07-28T13:35:12;4.20;;;2.05;;
49722;SDS011;43484;43.608;1.458;2023-07-28T13:37:40;8.02;;;2.08;;
49722;SDS011;43484;43.608;1.458;2023-07-28T13:40:07;3.10;;;1.45;;
49722;SDS011;43484;43.608;1.458;2023-07-28T13:42:38;7.40;;;1.85;;
49722;SDS011;43484;43.608;1.458;2023-07-28T13:45:05;2.50;;;1.90;;
49722;SDS011;43484;43.608;1.458;2023-07-28T13:47:32;6.90;;;1.83;;
49722;SDS011;43484;43.608;1.458;2023-07-28T13:49:58;4.15;;;2.17;;
49722;SDS011;43484;43.608;1.458;2023-07-28T13:52:25;4.65;;;2.20;;
49722;SDS011;43484;43.608;1.458;2023-07-28T13:54:52;3.95;;;1.88;;
49722;SDS011;43484;43.608;1.458;2023-07-28T13:57:22;4.30;;;1.95;;
49722;SDS011;43484;43.608;1.458;2023-07-28T13:59:49;4.38;;;1.88;;
49722;SDS011;43484;43.608;1.458;2023-07-28T14:02:18;6.45;;;1.80;;
49722;SDS011;43484;43.608;1.458;2023-07-28T14:04:45;4.05;;;1.58;;
49722;SDS011;43484;43.608;1.458;2023-07-28T14:07:12;4.25;;;2.30;;
49722;SDS011;43484;43.608;1.458;2023-07-28T14:09:39;7.15;;;2.38;;
49722;SDS011;43484;43.608;1.458;2023-07-28T14:12:05;4.70;;;2.25;;
49722;SDS011;43484;43.608;1.458;2023-07-28T14:14:33;3.83;;;1.70;;
49722;SDS011;43484;43.608;1.458;2023-07-28T14:16:59;9.15;;;2.00;;
49722;SDS011;43484;43.608;1.458;2023-07-28T14:19:26;4.18;;;2.25;;
49722;SDS011;43484;43.608;1.458;2023-07-28T14:21:53;4.70;;;1.90;;
49722;SDS011;43484;43.608;1.458;2023-07-28T14:24:19;4.75;;;2.10;;
49722;SDS011;43484;43.608;1.458;2023-07-28T14:26:46;3.75;;;1.67;;
49722;SDS011;43484;43.608;1.458;2023-07-28T14:29:13;2.70;;;2.20;;
49722;SDS011;43484;43.608;1.458;2023-07-28T14:31:40;5.40;;;2.20;;
49722;SDS011;43484;43.608;1.458;2023-07-28T14:34:07;4.82;;;2.35;;
49722;SDS011;43484;43.608;1.458;2023-07-28T14:36:33;7.90;;;2.10;;
49722;SDS011;43484;43.608;1.458;2023-07-28T14:39:02;9.98;;;2.25;;
49722;SDS011;43484;43.608;1.458;2023-07-28T14:41:29;10.15;;;2.17;;
49722;SDS011;43484;43.608;1.458;2023-07-28T14:43:56;8.63;;;2.22;;
49722;SDS011;43484;43.608;1.458;2023-07-28T14:46:23;4.78;;;2.38;;
49722;SDS011;43484;43.608;1.458;2023-07-28T14:48:51;4.20;;;1.98;;
49722;SDS011;43484;43.608;1.458;2023-07-28T14:51:18;4.05;;;1.92;;
49722;SDS011;43484;43.608;1.458;2023-07-28T14:53:45;9.27;;;2.33;;
49722;SDS011;43484;43.608;1.458;2023-07-28T14:56:13;4.15;;;2.17;;
49722;SDS011;43484;43.608;1.458;2023-07-28T14:58:41;3.03;;;1.90;;
49722;SDS011;43484;43.608;1.458;2023-07-28T15:01:11;3.60;;;1.90;;
49722;SDS011;43484;43.608;1.458;2023-07-28T15:03:38;6.65;;;2.25;;